| time (UTC) | temp F | wind direction | speed MPH | gust MPH | rain 1hr in | rain 24hr in | rain mn in | humidity % | barometer mb |
| 20260903111006 | 66 | 159 | 4.0 | 14.0 | 0.17 | 0.30 | 0.30 | 89 | 1013.6 |
| 20260903110532 | 66 | 102 | 4.0 | 14.0 | 0.27 | 0.30 | 0.30 | 89 | 1013.5 |
| 20260903110004 | 66 | 168 | 3.0 | 11.0 | 0.27 | 0.30 | 0.30 | 89 | 1013.5 |
| 20260903105458 | 66 | 157 | 3.0 | 11.0 | 0.28 | 0.30 | 0.30 | 89 | 1013.4 |
| 20260903104502 | 66 | 148 | 4.0 | 13.0 | 0.28 | 0.30 | 0.30 | 89 | 1013.4 |
| 20260903104021 | 66 | 115 | 5.0 | 13.0 | 0.28 | 0.30 | 0.30 | 89 | 1013.4 |
| 20260903103503 | 66 | 142 | 6.0 | 14.0 | 0.27 | 0.29 | 0.29 | 89 | 1013.3 |
| 20260903103007 | 66 | 146 | 6.0 | 14.0 | 0.26 | 0.28 | 0.28 | 88 | 1013.3 |
| 20260903102516 | 66 | 140 | 4.0 | 10.0 | 0.23 | 0.25 | 0.25 | 88 | 1013.4 |
| 20260903102010 | 66 | 140 | 3.0 | 9.0 | 0.20 | 0.22 | 0.22 | 88 | 1013.5 |
| 20260903101501 | 66 | 156 | 2.0 | 9.0 | 0.17 | 0.19 | 0.19 | 88 | 1013.5 |
| 20260903101009 | 66 | 130 | 1.0 | 6.0 | 0.08 | 0.10 | 0.10 | 88 | 1013.6 |
| 20260903100507 | 66 | 153 | 1.0 | 5.0 | 0.02 | 0.03 | 0.03 | 88 | 1013.6 |
| 20260903100011 | 66 | 151 | 1.0 | 6.0 | 0.01 | 0.02 | 0.02 | 88 | 1013.5 |
| 20260903095458 | 65 | 132 | 0.0 | 6.0 | 0.01 | 0.02 | 0.02 | 88 | 1013.5 |
| 20260903095000 | 65 | 137 | 1.0 | 5.0 | 0.01 | 0.02 | 0.02 | 88 | 1013.6 |
| 20260903094459 | 65 | 167 | 1.0 | 5.0 | 0.01 | 0.02 | 0.02 | 88 | 1013.5 |
| 20260903094002 | 65 | 124 | 1.0 | 5.0 | 0.01 | 0.02 | 0.02 | 88 | 1013.6 |
| 20260903093501 | 65 | 159 | 1.0 | 6.0 | 0.01 | 0.02 | 0.02 | 87 | 1013.7 |
| 20260903093022 | 65 | 153 | 1.0 | 6.0 | 0.01 | 0.02 | 0.02 | 87 | 1013.7 |
| 20260903092504 | 65 | 148 | 0.0 | 2.0 | 0.01 | 0.02 | 0.02 | 87 | 1013.6 |
| 20260903091959 | 65 | 172 | 1.0 | 6.0 | 0.01 | 0.02 | 0.02 | 87 | 1013.7 |
| 20260903091508 | 65 | 144 | 1.0 | 6.0 | 0.01 | 0.02 | 0.02 | 87 | 1013.6 |
| 20260903091024 | 65 | 96 | 0.0 | 4.0 | 0.01 | 0.01 | 0.01 | 86 | 1013.7 |
| 20260903090459 | 65 | 132 | 0.0 | 0.0 | 0.01 | 0.01 | 0.01 | 86 | 1014.0 |
| 20260903090030 | 65 | 132 | 0.0 | 0.0 | 0.01 | 0.01 | 0.01 | 86 | 1014.0 |
| 20260903085459 | 65 | 132 | 0.0 | 2.0 | 0.01 | 0.01 | 0.01 | 86 | 1014.0 |
| 20260903085012 | 65 | 132 | 0.0 | 2.0 | 0.01 | 0.01 | 0.01 | 86 | 1014.2 |
| 20260903084507 | 65 | 132 | 0.0 | 0.0 | 0.01 | 0.01 | 0.01 | 85 | 1014.3 |
| 20260903084027 | 65 | 132 | 0.0 | 0.0 | 0.01 | 0.01 | 0.01 | 85 | 1014.3 |
| 20260903083500 | 65 | 132 | 0.0 | 2.0 | 0.01 | 0.01 | 0.01 | 85 | 1014.3 |
| 20260903083002 | 65 | 132 | 0.0 | 2.0 | 0.01 | 0.01 | 0.01 | 85 | 1014.5 |
| 20260903082513 | 65 | 132 | 1.0 | 4.0 | 0.01 | 0.01 | 0.01 | 85 | 1014.5 |
| 20260903082004 | 65 | 167 | 1.0 | 3.0 | 0.01 | 0.01 | 0.01 | 84 | 1014.5 |
| 20260903081459 | 65 | 145 | 1.0 | 4.0 | 0.01 | 0.01 | 0.01 | 84 | 1014.5 |
| 20260903080009 | 65 | 126 | 1.0 | 4.0 | 0.00 | 0.00 | 0.00 | 84 | 1014.7 |
| 20260903075503 | 65 | 153 | 1.0 | 4.0 | 0.00 | 0.00 | 0.00 | 84 | 1014.7 |
| 20260903075009 | 65 | 159 | 1.0 | 8.0 | 0.00 | 0.00 | 0.00 | 84 | 1014.7 |
| 20260903074522 | 65 | 159 | 3.0 | 8.0 | 0.00 | 0.00 | 0.00 | 84 | 1014.8 |
| 20260903074004 | 65 | 164 | 3.0 | 8.0 | 0.00 | 0.00 | 0.00 | 84 | 1014.7 |
| 20260903073505 | 65 | 121 | 3.0 | 7.0 | 0.00 | 0.00 | 0.00 | 84 | 1014.7 |
| 20260903073009 | 65 | 146 | 3.0 | 7.0 | 0.00 | 0.00 | 0.00 | 84 | 1014.8 |
| 20260903072503 | 65 | 159 | 4.0 | 9.0 | 0.00 | 0.00 | 0.00 | 84 | 1014.9 |
| 20260903072006 | 65 | 142 | 5.0 | 9.0 | 0.00 | 0.00 | 0.00 | 84 | 1014.9 |
| 20260903071005 | 64 | 151 | 3.0 | 6.0 | 0.00 | 0.00 | 0.00 | 84 | 1015.2 |
| 20260903070458 | 64 | 146 | 4.0 | 7.0 | 0.00 | 0.00 | 0.00 | 83 | 1015.3 |
| 20260903070005 | 64 | 140 | 4.0 | 7.0 | 0.00 | 0.00 | 0.00 | 83 | 1015.3 |
| 20260903065515 | 64 | 152 | 3.0 | 7.0 | 0.00 | 0.00 | 0.00 | 83 | 1015.3 |
| 20260903065008 | 64 | 162 | 2.0 | 6.0 | 0.00 | 0.00 | 0.00 | 83 | 1015.3 |
| 20260903064024 | 64 | 162 | 2.0 | 5.0 | 0.00 | 0.00 | 0.00 | 83 | 1015.6 |
| 20260903063504 | 64 | 140 | 2.0 | 5.0 | 0.00 | 0.00 | 0.00 | 83 | 1015.7 |
| 20260903063029 | 64 | 142 | 2.0 | 5.0 | 0.00 | 0.00 | 0.00 | 82 | 1015.8 |
| 20260903062503 | 64 | 117 | 2.0 | 4.0 | 0.00 | 0.00 | 0.00 | 82 | 1015.9 |
| 20260903062004 | 64 | 138 | 1.0 | 6.0 | 0.00 | 0.00 | 0.00 | 82 | 1016.0 |
| 20260903061504 | 64 | 140 | 0.0 | 6.0 | 0.00 | 0.00 | 0.00 | 82 | 1016.1 |
| 20260903061005 | 64 | 149 | 1.0 | 5.0 | 0.00 | 0.00 | 0.00 | 82 | 1016.3 |
| 20260903060502 | 63 | 148 | 1.0 | 5.0 | 0.00 | 0.00 | 0.00 | 82 | 1016.3 |
| 20260903060007 | 63 | 148 | 1.0 | 5.0 | 0.00 | 0.00 | 0.00 | 82 | 1016.3 |
| 20260903055507 | 63 | 149 | 1.0 | 4.0 | 0.00 | 0.00 | 0.00 | 82 | 1016.5 |
| 20260903055030 | 63 | 149 | 2.0 | 6.0 | 0.00 | 0.00 | 0.00 | 82 | 1016.5 |
| 20260903054008 | 63 | 141 | 2.0 | 5.0 | 0.00 | 0.00 | 0.00 | 82 | 1016.5 |
| 20260903053501 | 63 | 140 | 1.0 | 5.0 | 0.00 | 0.00 | 0.00 | 82 | 1016.7 |
| 20260903053011 | 63 | 141 | 1.0 | 4.0 | 0.00 | 0.00 | 0.00 | 82 | 1016.8 |
| 20260903052502 | 63 | 141 | 2.0 | 5.0 | 0.00 | 0.00 | 0.00 | 82 | 1016.9 |
| 20260903051507 | 63 | 147 | 0.0 | 5.0 | 0.00 | 0.00 | 0.00 | 83 | 1017.0 |
| 20260903051004 | 63 | 147 | 1.0 | 5.0 | 0.00 | 0.00 | 0.00 | 83 | 1017.2 |
| 20260903050502 | 62 | 147 | 1.0 | 5.0 | 0.00 | 0.00 | 0.00 | 84 | 1017.2 |
| 20260903050024 | 62 | 148 | 2.0 | 5.0 | 0.00 | 0.00 | 0.00 | 84 | 1017.0 |
| 20260903045520 | 62 | 148 | 2.0 | 5.0 | 0.00 | 0.00 | 0.00 | 84 | 1016.9 |
| 20260903045009 | 62 | 130 | 2.0 | 5.0 | 0.00 | 0.00 | 0.00 | 84 | 1017.0 |
| 20260903044509 | 62 | 132 | 1.0 | 5.0 | 0.00 | 0.00 | 0.00 | 84 | 1016.9 |
| 20260903044005 | 62 | 143 | 0.0 | 5.0 | 0.00 | 0.00 | 0.00 | 84 | 1017.0 |
| 20260903043514 | 62 | 149 | 0.0 | 1.0 | 0.00 | 0.00 | 0.00 | 84 | 1017.1 |
| 20260903043007 | 62 | 150 | 0.0 | 1.0 | 0.00 | 0.00 | 0.00 | 85 | 1017.0 |
| 20260903042511 | 62 | 150 | 0.0 | 2.0 | 0.00 | 0.00 | 0.00 | 85 | 1017.0 |
| 20260903042002 | 62 | 150 | 0.0 | 2.0 | 0.00 | 0.00 | 0.00 | 85 | 1017.0 |
| 20260903041459 | 62 | 149 | 0.0 | 4.0 | 0.00 | 0.00 | 0.00 | 85 | 1017.1 |
| 20260903041000 | 62 | 149 | 1.0 | 4.0 | 0.00 | 0.00 | 0.00 | 85 | 1016.9 |
| 20260903040503 | 62 | 150 | 0.0 | 2.0 | 0.00 | 0.00 | 0.00 | 85 | 1016.9 |
| 20260903040009 | 62 | 150 | 0.0 | 5.0 | 0.00 | 0.00 | 0.00 | 85 | 1017.0 |
| 20260903035508 | 62 | 150 | 0.0 | 5.0 | 0.00 | 0.00 | 0.00 | 85 | 1017.0 |
| 20260903035003 | 62 | 167 | 0.0 | 0.0 | 0.00 | 0.00 | 0.00 | 85 | 1017.2 |
| 20260903034507 | 62 | 147 | 0.0 | 0.0 | 0.00 | 0.00 | 0.00 | 85 | 1017.4 |
| 20260903034023 | 63 | 147 | 0.0 | 0.0 | 0.00 | 0.00 | 0.00 | 85 | 1017.2 |
| 20260903033513 | 63 | 143 | 0.0 | 0.0 | 0.00 | 0.00 | 0.00 | 85 | 1017.0 |
| 20260903033032 | 63 | 140 | 0.0 | 0.0 | 0.00 | 0.00 | 0.00 | 85 | 1017.1 |
| 20260903032004 | 63 | 137 | 0.0 | 0.0 | 0.00 | 0.00 | 0.00 | 85 | 1017.4 |
| 20260903031006 | 63 | 119 | 0.0 | 0.0 | 0.00 | 0.00 | 0.00 | 84 | 1017.4 |
| 20260903030508 | 63 | 119 | 0.0 | 0.0 | 0.00 | 0.00 | 0.00 | 84 | 1017.5 |
| 20260903030009 | 63 | 119 | 0.0 | 0.0 | 0.00 | 0.00 | 0.00 | 84 | 1017.4 |
| 20260903025501 | 63 | 119 | 0.0 | 0.0 | 0.00 | 0.00 | 0.00 | 84 | 1017.7 |
| 20260903025015 | 63 | 119 | 0.0 | 0.0 | 0.00 | 0.00 | 0.00 | 84 | 1017.6 |
| 20260903024506 | 63 | 118 | 0.0 | 0.0 | 0.00 | 0.00 | 0.00 | 84 | 1017.7 |
| 20260903024007 | 63 | 118 | 0.0 | 0.0 | 0.00 | 0.00 | 0.00 | 84 | 1017.7 |
| 20260903023504 | 63 | 118 | 0.0 | 0.0 | 0.00 | 0.00 | 0.00 | 84 | 1017.7 |
| 20260903023006 | 63 | 118 | 0.0 | 0.0 | 0.00 | 0.00 | 0.00 | 83 | 1017.6 |
| 20260903022504 | 63 | 118 | 0.0 | 4.0 | 0.00 | 0.00 | 0.00 | 83 | 1017.5 |
| 20260903022011 | 63 | 118 | 1.0 | 4.0 | 0.00 | 0.00 | 0.00 | 83 | 1017.7 |
| 20260903021505 | 63 | 117 | 1.0 | 3.0 | 0.00 | 0.00 | 0.00 | 83 | 1017.7 |
| 20260903021005 | 63 | 134 | 0.0 | 2.0 | 0.00 | 0.00 | 0.00 | 83 | 1017.7 |
| 20260903020500 | 63 | 142 | 0.0 | 0.0 | 0.00 | 0.00 | 0.00 | 82 | 1017.7 |
| 20260903015503 | 63 | 129 | 0.0 | 0.0 | 0.00 | 0.00 | 0.00 | 82 | 1017.9 |
| 20260903015002 | 63 | 129 | 0.0 | 0.0 | 0.00 | 0.00 | 0.00 | 81 | 1017.9 |
| 20260903014515 | 63 | 130 | 0.0 | 0.0 | 0.00 | 0.00 | 0.00 | 81 | 1017.9 |
| 20260903014029 | 64 | 129 | 0.0 | 0.0 | 0.00 | 0.00 | 0.00 | 81 | 1017.9 |
| 20260903013521 | 64 | 130 | 0.0 | 0.0 | 0.00 | 0.00 | 0.00 | 81 | 1018.0 |
| 20260903013028 | 64 | 129 | 0.0 | 0.0 | 0.00 | 0.00 | 0.00 | 80 | 1017.8 |
| 20260903012505 | 64 | 129 | 0.0 | 0.0 | 0.00 | 0.00 | 0.00 | 80 | 1018.0 |
| 20260903011959 | 64 | 129 | 0.0 | 0.0 | 0.00 | 0.00 | 0.00 | 80 | 1018.1 |
| 20260903011523 | 65 | 129 | 0.0 | 0.0 | 0.00 | 0.00 | 0.00 | 80 | 1018.1 |
| 20260903011002 | 65 | 129 | 0.0 | 0.0 | 0.00 | 0.00 | 0.00 | 80 | 1018.3 |
| 20260903010459 | 65 | 129 | 0.0 | 0.0 | 0.00 | 0.00 | 0.00 | 80 | 1018.5 |
| 20260903010023 | 65 | 129 | 0.0 | 0.0 | 0.00 | 0.00 | 0.00 | 79 | 1018.5 |
| 20260903005531 | 65 | 129 | 0.0 | 0.0 | 0.00 | 0.00 | 0.00 | 79 | 1018.4 |
| 20260903005020 | 65 | 129 | 0.0 | 0.0 | 0.00 | 0.00 | 0.00 | 79 | 1018.4 |
| 20260903003518 | 66 | 129 | 0.0 | 0.0 | 0.00 | 0.00 | 0.00 | 78 | 1018.1 |
| 20260903003006 | 66 | 129 | 0.0 | 0.0 | 0.00 | 0.00 | 0.00 | 78 | 1018.2 |
| 20260903002505 | 66 | 129 | 0.0 | 0.0 | 0.00 | 0.00 | 0.00 | 78 | 1018.3 |
| 20260903002003 | 66 | 129 | 0.0 | 0.0 | 0.00 | 0.00 | 0.00 | 78 | 1018.4 |
| 20260903001026 | 66 | 129 | 0.0 | 0.0 | 0.00 | 0.00 | 0.00 | 77 | 1018.4 |
| 20260903000503 | 67 | 129 | 0.0 | 0.0 | 0.00 | 0.00 | 0.00 | 77 | 1018.5 |
| 20260903000029 | 67 | 129 | 0.0 | 2.0 | 0.00 | 0.00 | 0.00 | 77 | 1018.7 |
| 20260902235503 | 67 | 129 | 0.0 | 2.0 | 0.00 | 0.00 | 0.00 | 77 | 1018.6 |
| 20260902235006 | 67 | 129 | 1.0 | 5.0 | 0.00 | 0.00 | 0.00 | 77 | 1018.5 |
| 20260902234513 | 67 | 130 | 2.0 | 5.0 | 0.00 | 0.00 | 0.00 | 77 | 1018.4 |
| 20260902234000 | 67 | 122 | 1.0 | 5.0 | 0.00 | 0.00 | 0.00 | 76 | 1018.6 |
| 20260902233512 | 67 | 113 | 1.0 | 5.0 | 0.00 | 0.00 | 0.00 | 76 | 1018.6 |
| 20260902233022 | 68 | 92 | 1.0 | 5.0 | 0.00 | 0.00 | 0.00 | 76 | 1018.5 |
| 20260902232519 | 68 | 105 | 1.0 | 4.0 | 0.00 | 0.00 | 0.00 | 75 | 1018.7 |
| 20260902232009 | 68 | 98 | 1.0 | 4.0 | 0.00 | 0.00 | 0.00 | 75 | 1018.7 |
| 20260902231504 | 68 | 98 | 1.0 | 4.0 | 0.00 | 0.00 | 0.00 | 75 | 1018.6 |
| 20260902230959 | 68 | 119 | 2.0 | 6.0 | 0.00 | 0.00 | 0.00 | 74 | 1018.6 |
| 20260902230513 | 69 | 126 | 1.0 | 6.0 | 0.00 | 0.00 | 0.00 | 73 | 1018.7 |
| 20260902230007 | 69 | 101 | 1.0 | 4.0 | 0.00 | 0.00 | 0.00 | 73 | 1018.6 |
| 20260902225024 | 69 | 90 | 2.0 | 5.0 | 0.00 | 0.00 | 0.00 | 72 | 1018.9 |
| 20260902224526 | 69 | 111 | 3.0 | 6.0 | 0.00 | 0.00 | 0.00 | 71 | 1018.9 |
| 20260902223502 | 70 | 118 | 2.0 | 6.0 | 0.00 | 0.00 | 0.00 | 70 | 1019.1 |
| 20260902223001 | 70 | 121 | 2.0 | 6.0 | 0.00 | 0.00 | 0.00 | 70 | 1019.0 |
| 20260902222502 | 70 | 98 | 2.0 | 5.0 | 0.00 | 0.00 | 0.00 | 70 | 1019.0 |
| 20260902222021 | 70 | 95 | 2.0 | 5.0 | 0.00 | 0.00 | 0.00 | 69 | 1019.1 |
| 20260902221515 | 70 | 71 | 2.0 | 6.0 | 0.00 | 0.00 | 0.00 | 69 | 1019.1 |
| 20260902221003 | 70 | 135 | 2.0 | 6.0 | 0.00 | 0.00 | 0.00 | 68 | 1019.1 |
| 20260902220459 | 70 | 109 | 2.0 | 5.0 | 0.00 | 0.00 | 0.00 | 68 | 1018.9 |
| 20260902220020 | 71 | 154 | 3.0 | 7.0 | 0.00 | 0.00 | 0.00 | 67 | 1018.9 |
| 20260902215008 | 71 | 121 | 3.0 | 8.0 | 0.00 | 0.00 | 0.00 | 67 | 1018.6 |
| 20260902214502 | 71 | 84 | 3.0 | 9.0 | 0.00 | 0.00 | 0.00 | 66 | 1018.5 |
| 20260902214029 | 71 | 61 | 4.0 | 9.0 | 0.00 | 0.00 | 0.00 | 66 | 1018.4 |
| 20260902213513 | 72 | 120 | 3.0 | 7.0 | 0.00 | 0.00 | 0.00 | 65 | 1018.6 |
| 20260902211458 | 73 | 137 | 2.0 | 6.0 | 0.00 | 0.00 | 0.00 | 62 | 1019.0 |
| 20260902211007 | 73 | 92 | 2.0 | 7.0 | 0.00 | 0.00 | 0.00 | 62 | 1019.1 |
| 20260902210511 | 73 | 102 | 2.0 | 7.0 | 0.00 | 0.00 | 0.00 | 62 | 1019.0 |
| 20260902210051 | 74 | 119 | 2.0 | 7.0 | 0.00 | 0.00 | 0.00 | 60 | 1018.9 |
| 20260902205510 | 74 | 93 | 2.0 | 7.0 | 0.00 | 0.00 | 0.00 | 60 | 1019.1 |
| 20260902205003 | 75 | 92 | 1.0 | 7.0 | 0.00 | 0.00 | 0.00 | 57 | 1019.1 |
| 20260902204505 | 75 | 92 | 1.0 | 5.0 | 0.00 | 0.00 | 0.00 | 58 | 1019.0 |
| 20260902204008 | 76 | 135 | 1.0 | 5.0 | 0.00 | 0.00 | 0.00 | 57 | 1019.1 |
| 20260902203506 | 76 | 122 | 1.0 | 4.0 | 0.00 | 0.00 | 0.00 | 57 | 1019.0 |
| 20260902203008 | 76 | 134 | 2.0 | 5.0 | 0.00 | 0.00 | 0.00 | 56 | 1018.8 |
| 20260902202501 | 76 | 82 | 2.0 | 5.0 | 0.00 | 0.00 | 0.00 | 55 | 1018.9 |
| 20260902202004 | 76 | 232 | 2.0 | 5.0 | 0.00 | 0.00 | 0.00 | 55 | 1018.9 |
| 20260902201506 | 76 | 123 | 2.0 | 5.0 | 0.00 | 0.00 | 0.00 | 54 | 1018.8 |
| 20260902200506 | 76 | 25 | 2.0 | 6.0 | 0.00 | 0.00 | 0.00 | 52 | 1018.9 |
| 20260902200030 | 76 | 309 | 2.0 | 5.0 | 0.00 | 0.00 | 0.00 | 53 | 1019.0 |
| 20260902195509 | 77 | 82 | 1.0 | 5.0 | 0.00 | 0.00 | 0.00 | 52 | 1019.1 |
| 20260902195000 | 77 | 348 | 2.0 | 5.0 | 0.00 | 0.00 | 0.00 | 51 | 1019.3 |
| 20260902194501 | 77 | 130 | 2.0 | 5.0 | 0.00 | 0.00 | 0.00 | 53 | 1019.4 |
| 20260902194006 | 77 | 98 | 2.0 | 7.0 | 0.00 | 0.00 | 0.00 | 56 | 1019.5 |
| 20260902193506 | 77 | 132 | 2.0 | 7.0 | 0.00 | 0.00 | 0.00 | 56 | 1019.4 |
| 20260902192536 | 76 | 162 | 3.0 | 6.0 | 0.00 | 0.00 | 0.00 | 58 | 1019.4 |
| 20260902192024 | 76 | 116 | 3.0 | 6.0 | 0.00 | 0.00 | 0.00 | 58 | 1019.3 |
| 20260902191459 | 77 | 130 | 3.0 | 7.0 | 0.00 | 0.00 | 0.00 | 57 | 1019.2 |
| 20260902190518 | 78 | 69 | 4.0 | 9.0 | 0.00 | 0.00 | 0.00 | 56 | 1019.2 |
| 20260902190025 | 78 | 263 | 3.0 | 9.0 | 0.00 | 0.00 | 0.00 | 55 | 1019.2 |
| 20260902185503 | 79 | 132 | 2.0 | 6.0 | 0.00 | 0.02 | 0.00 | 57 | 1019.3 |
| 20260902184502 | 79 | 360 | 2.0 | 5.0 | 0.00 | 0.02 | 0.00 | 55 | 1019.1 |
| 20260902183503 | 79 | 191 | 2.0 | 10.0 | 0.00 | 0.02 | 0.00 | 54 | 1019.4 |
| 20260902183002 | 79 | 53 | 3.0 | 10.0 | 0.00 | 0.02 | 0.00 | 54 | 1019.2 |
| 20260902182502 | 78 | 44 | 2.0 | 6.0 | 0.00 | 0.02 | 0.00 | 54 | 1019.2 |
| 20260902182004 | 78 | 90 | 2.0 | 7.0 | 0.00 | 0.02 | 0.00 | 57 | 1019.4 |
| 20260902181500 | 78 | 86 | 3.0 | 7.0 | 0.00 | 0.02 | 0.00 | 58 | 1019.3 |
| 20260902181000 | 78 | 87 | 4.0 | 7.0 | 0.00 | 0.02 | 0.00 | 56 | 1019.4 |
| 20260902180610 | 78 | 130 | 3.0 | 7.0 | 0.00 | 0.02 | 0.00 | 57 | 1019.5 |
| 20260902180030 | 79 | 134 | 3.0 | 8.0 | 0.00 | 0.02 | 0.00 | 56 | 1019.5 |
| 20260902175458 | 79 | 86 | 3.0 | 8.0 | 0.00 | 0.02 | 0.00 | 52 | 1019.6 |
| 20260902174532 | 79 | 112 | 2.0 | 3.0 | 0.00 | 0.02 | 0.00 | 58 | 1019.6 |
| 20260902173959 | 79 | 221 | 2.0 | 5.0 | 0.00 | 0.02 | 0.00 | 58 | 1019.6 |
| 20260902173513 | 79 | 157 | 2.0 | 5.0 | 0.00 | 0.02 | 0.00 | 59 | 1019.6 |
| 20260902172502 | 78 | 108 | 3.0 | 9.0 | 0.00 | 0.02 | 0.00 | 60 | 1019.6 |
| 20260902171959 | 79 | 70 | 3.0 | 9.0 | 0.00 | 0.02 | 0.00 | 57 | 1019.5 |
| 20260902171503 | 79 | 10 | 3.0 | 8.0 | 0.00 | 0.02 | 0.00 | 57 | 1019.5 |
| 20260902171005 | 78 | 140 | 4.0 | 8.0 | 0.00 | 0.02 | 0.00 | 57 | 1019.6 |
| 20260902170517 | 78 | 146 | 4.0 | 8.0 | 0.00 | 0.02 | 0.00 | 57 | 1019.7 |
| 20260902170027 | 78 | 113 | 3.0 | 7.0 | 0.00 | 0.02 | 0.00 | 59 | 1019.8 |
| 20260902165513 | 78 | 104 | 3.0 | 7.0 | 0.00 | 0.02 | 0.00 | 61 | 1019.7 |
| 20260902165027 | 77 | 62 | 2.0 | 5.0 | 0.00 | 0.02 | 0.00 | 62 | 1019.6 |
| 20260902164506 | 77 | 270 | 2.0 | 7.0 | 0.00 | 0.02 | 0.00 | 62 | 1019.7 |
| 20260902164004 | 77 | 136 | 2.0 | 7.0 | 0.00 | 0.02 | 0.00 | 62 | 1019.6 |
| 20260902163005 | 77 | 153 | 2.0 | 6.0 | 0.00 | 0.02 | 0.00 | 61 | 1019.8 |
| 20260902161525 | 78 | 305 | 2.0 | 7.0 | 0.00 | 0.02 | 0.00 | 61 | 1019.9 |
| 20260902161029 | 78 | 119 | 2.0 | 6.0 | 0.00 | 0.02 | 0.00 | 60 | 1020.0 |
| 20260902160501 | 78 | 165 | 2.0 | 5.0 | 0.00 | 0.02 | 0.00 | 63 | 1020.1 |
| 20260902160007 | 77 | 225 | 2.0 | 5.0 | 0.00 | 0.02 | 0.00 | 62 | 1020.2 |
| 20260902155501 | 77 | 86 | 2.0 | 5.0 | 0.00 | 0.02 | 0.00 | 63 | 1020.1 |
| 20260902155045 | 77 | 27 | 2.0 | 6.0 | 0.00 | 0.02 | 0.00 | 63 | 1020.0 |
| 20260902154503 | 77 | 81 | 2.0 | 6.0 | 0.00 | 0.02 | 0.00 | 63 | 1020.1 |
| 20260902153504 | 76 | 181 | 1.0 | 3.0 | 0.00 | 0.02 | 0.00 | 65 | 1020.1 |
| 20260902153007 | 76 | 295 | 2.0 | 6.0 | 0.00 | 0.02 | 0.00 | 65 | 1020.0 |
| 20260902152511 | 76 | 244 | 2.0 | 7.0 | 0.00 | 0.02 | 0.00 | 64 | 1020.1 |
| 20260902151959 | 76 | 185 | 3.0 | 7.0 | 0.00 | 0.02 | 0.00 | 65 | 1020.0 |
| 20260902150519 | 75 | 346 | 2.0 | 5.0 | 0.00 | 0.02 | 0.00 | 67 | 1020.0 |
| 20260902144502 | 73 | 111 | 3.0 | 7.0 | 0.00 | 0.02 | 0.00 | 68 | 1020.0 |
| 20260902144007 | 73 | 317 | 4.0 | 9.0 | 0.00 | 0.02 | 0.00 | 68 | 1019.7 |
| 20260902143458 | 73 | 115 | 3.0 | 9.0 | 0.00 | 0.02 | 0.00 | 67 | 1019.7 |
| 20260902143004 | 74 | 147 | 3.0 | 8.0 | 0.00 | 0.02 | 0.00 | 68 | 1019.8 |
| 20260902142507 | 74 | 142 | 3.0 | 8.0 | 0.00 | 0.02 | 0.00 | 68 | 1019.8 |
| 20260902142011 | 74 | 155 | 2.0 | 5.0 | 0.00 | 0.02 | 0.00 | 69 | 1019.6 |
| 20260902141504 | 73 | 121 | 2.0 | 8.0 | 0.00 | 0.02 | 0.00 | 70 | 1019.6 |
| 20260902141041 | 73 | 141 | 2.0 | 8.0 | 0.00 | 0.02 | 0.00 | 70 | 1019.4 |
| 20260902140510 | 73 | 161 | 3.0 | 8.0 | 0.00 | 0.02 | 0.00 | 69 | 1019.5 |
| 20260902140024 | 72 | 49 | 4.0 | 8.0 | 0.00 | 0.02 | 0.00 | 70 | 1019.3 |
| 20260902135505 | 72 | 126 | 4.0 | 8.0 | 0.00 | 0.02 | 0.00 | 71 | 1019.4 |
| 20260902135028 | 71 | 123 | 4.0 | 8.0 | 0.00 | 0.02 | 0.00 | 72 | 1019.4 |
| 20260902134502 | 71 | 90 | 3.0 | 8.0 | 0.00 | 0.02 | 0.00 | 73 | 1019.5 |
| 20260902134004 | 70 | 86 | 3.0 | 7.0 | 0.00 | 0.02 | 0.00 | 74 | 1019.4 |
| 20260902133500 | 70 | 183 | 3.0 | 7.0 | 0.00 | 0.02 | 0.00 | 74 | 1019.5 |
| 20260902133000 | 69 | 55 | 2.0 | 7.0 | 0.00 | 0.02 | 0.00 | 76 | 1019.5 |
| 20260902132505 | 69 | 104 | 1.0 | 6.0 | 0.00 | 0.02 | 0.00 | 77 | 1019.5 |
| 20260902131504 | 68 | 103 | 1.0 | 5.0 | 0.00 | 0.02 | 0.00 | 78 | 1019.3 |
| 20260902131006 | 68 | 88 | 2.0 | 7.0 | 0.00 | 0.02 | 0.00 | 77 | 1019.4 |
| 20260902130010 | 68 | 44 | 1.0 | 2.0 | 0.00 | 0.02 | 0.00 | 79 | 1019.7 |
| 20260902125505 | 68 | 37 | 1.0 | 4.0 | 0.00 | 0.02 | 0.00 | 79 | 1019.6 |
| 20260902125003 | 67 | 28 | 1.0 | 4.0 | 0.00 | 0.02 | 0.00 | 80 | 1019.5 |
| 20260902124509 | 67 | 85 | 1.0 | 2.0 | 0.00 | 0.02 | 0.00 | 81 | 1019.5 |
| 20260902123508 | 67 | 85 | 0.0 | 4.0 | 0.00 | 0.02 | 0.00 | 81 | 1019.4 |
| 20260902123007 | 67 | 85 | 1.0 | 4.0 | 0.00 | 0.02 | 0.00 | 81 | 1019.5 |
| 20260902122508 | 66 | 78 | 0.0 | 2.0 | 0.00 | 0.02 | 0.00 | 82 | 1019.5 |
| 20260902122003 | 66 | 78 | 1.0 | 4.0 | 0.00 | 0.02 | 0.00 | 82 | 1019.7 |
| 20260902121459 | 66 | 78 | 1.0 | 4.0 | 0.00 | 0.02 | 0.00 | 82 | 1019.8 |
| 20260902121004 | 66 | 101 | 0.0 | 3.0 | 0.00 | 0.02 | 0.00 | 82 | 1019.8 |
| 20260902120520 | 66 | 53 | 0.0 | 2.0 | 0.00 | 0.02 | 0.00 | 83 | 1019.8 |
| 20260902120002 | 65 | 53 | 1.0 | 2.0 | 0.00 | 0.02 | 0.00 | 83 | 1019.9 |
| 20260902115500 | 65 | 53 | 0.0 | 4.0 | 0.00 | 0.02 | 0.00 | 83 | 1019.7 |
| 20260902115002 | 65 | 53 | 0.0 | 4.0 | 0.00 | 0.02 | 0.00 | 83 | 1019.7 |
| 20260902114002 | 65 | 76 | 0.0 | 1.0 | 0.00 | 0.02 | 0.00 | 84 | 1019.5 |
| 20260902113004 | 64 | 75 | 0.0 | 4.0 | 0.00 | 0.02 | 0.00 | 84 | 1019.5 |
| 20260902112507 | 64 | 75 | 0.0 | 5.0 | 0.00 | 0.02 | 0.00 | 84 | 1019.4 |
| 20260902112001 | 64 | 76 | 0.0 | 5.0 | 0.00 | 0.02 | 0.00 | 84 | 1019.4 |
| 20260902111509 | 64 | 86 | 0.0 | 2.0 | 0.00 | 0.02 | 0.00 | 84 | 1019.4 |